Time;durP1;ratioP1;P1;durP2;ratioP2;P2;SDS_P1;SDS_P2;PMS_P1;PMS_P2;Temp;Humidity;BMP_temperature;BMP_pressure;BME280_temperature;BME280_humidity;BME280_pressure;Samples;Min_cycle;Max_cycle;Signal;HPM_P1;HPM_P2
2022/08/09 00:01:10;;;;;;;5.77;3.47;;;;;;;15.38;70.13;94581.09;5007734;28;20207;-65
2022/08/09 00:03:55;;;;;;;3.23;2.90;;;;;;;15.37;69.90;94573.97;5009608;28;20231;-66
2022/08/09 00:06:39;;;;;;;3.77;3.03;;;;;;;15.45;69.47;94568.09;5010146;28;20220;-66
2022/08/09 00:09:23;;;;;;;4.83;3.23;;;;;;;15.42;69.87;94575.72;4998058;28;20208;-66
2022/08/09 00:12:08;;;;;;;11.20;3.40;;;;;;;15.42;69.79;94575.72;4994055;28;20216;-66
2022/08/09 00:14:53;;;;;;;3.10;2.83;;;;;;;15.34;70.24;94569.53;5005422;28;20232;-66
2022/08/09 00:17:37;;;;;;;2.90;2.70;;;;;;;15.30;70.18;94580.59;5012830;28;20204;-66
2022/08/09 00:20:21;;;;;;;6.57;2.80;;;;;;;15.26;70.28;94577.50;5008670;28;20199;-66
2022/08/09 00:23:05;;;;;;;4.13;2.60;;;;;;;15.24;70.28;94577.38;5009165;28;20191;-66
2022/08/09 00:25:50;;;;;;;3.23;2.53;;;;;;;15.23;70.01;94575.91;5006016;28;20298;-66
2022/08/09 00:28:34;;;;;;;3.10;2.80;;;;;;;15.21;69.71;94572.94;5012542;28;20223;-66
2022/08/09 00:31:22;;;;;;;3.13;2.83;;;;;;;15.16;70.07;94571.94;5008086;28;20204;-65
2022/08/09 00:34:06;;;;;;;3.60;2.83;;;;;;;15.18;69.96;94576.97;5008910;28;20205;-66
2022/08/09 00:36:51;;;;;;;2.70;2.50;;;;;;;15.13;70.68;94572.41;5005498;28;20199;-66
2022/08/09 00:39:35;;;;;;;6.10;2.50;;;;;;;15.10;70.91;94568.72;5013037;28;20203;-66
2022/08/09 00:42:20;;;;;;;3.47;3.17;;;;;;;15.10;70.72;94573.63;5012269;28;20204;-66
2022/08/09 00:45:04;;;;;;;8.63;3.07;;;;;;;15.07;70.64;94575.56;5010095;28;20203;-66
2022/08/09 00:47:48;;;;;;;3.27;2.93;;;;;;;15.10;70.60;94573.63;5012176;28;20223;-65
2022/08/09 00:50:33;;;;;;;3.47;3.17;;;;;;;15.24;69.53;94572.47;5012637;28;20203;-65
2022/08/09 00:53:17;;;;;;;2.77;2.50;;;;;;;15.48;68.70;94573.28;4995465;28;20232;-65
2022/08/09 00:56:03;;;;;;;3.40;2.90;;;;;;;15.32;69.33;94575.06;5008586;28;20196;-65
2022/08/09 00:58:49;;;;;;;3.33;3.00;;;;;;;15.51;68.50;94572.03;5005214;28;20200;-65
2022/08/09 01:01:39;;;;;;;3.90;3.07;;;;;;;15.63;67.69;94574.94;5008551;28;20200;-66
2022/08/09 01:04:35;;;;;;;4.53;3.00;;;;;;;15.46;68.35;94570.31;5002293;28;20700;-66
2022/08/09 01:07:25;;;;;;;3.60;2.80;;;;;;;15.38;68.42;94566.97;5000458;28;20224;-65
2022/08/09 01:10:57;;;;;;;5.43;2.67;;;;;;;15.28;68.89;94571.97;4995532;28;20669;-66
2022/08/09 01:13:54;;;;;;;3.87;2.93;;;;;;;15.13;69.39;94575.22;4997947;28;20290;-66
2022/08/09 01:16:44;;;;;;;4.17;2.90;;;;;;;14.97;70.28;94572.09;5005367;28;20204;-66
2022/08/09 01:19:50;;;;;;;5.20;2.90;;;;;;;14.84;71.33;94572.66;5000957;28;20279;-65
2022/08/09 01:22:46;;;;;;;4.90;3.40;;;;;;;14.65;72.42;94570.69;5007572;28;20227;-65
2022/08/09 01:25:32;;;;;;;5.50;3.13;;;;;;;14.75;71.89;94567.81;5009580;28;20195;-65
2022/08/09 01:28:19;;;;;;;4.83;2.93;;;;;;;14.97;70.86;94572.84;5002722;28;20744;-65
2022/08/09 01:31:05;;;;;;;5.23;3.07;;;;;;;14.95;70.61;94575.53;5009490;28;20261;-66
2022/08/09 01:33:51;;;;;;;5.10;3.10;;;;;;;14.91;70.87;94569.63;4997009;28;20692;-65
2022/08/09 01:36:39;;;;;;;4.17;2.97;;;;;;;14.81;71.51;94568.94;5003936;28;20216;-65
2022/08/09 01:39:26;;;;;;;6.70;3.10;;;;;;;14.71;71.59;94568.28;5005319;28;20207;-65
2022/08/09 01:42:10;;;;;;;2.90;2.70;;;;;;;14.65;71.54;94570.69;5009825;28;20211;-65
2022/08/09 01:44:55;;;;;;;3.43;3.10;;;;;;;14.69;71.27;94568.13;4999639;28;20204;-65
2022/08/09 01:47:40;;;;;;;4.63;3.00;;;;;;;14.53;72.00;94569.88;5009229;28;20866;-66
2022/08/09 01:50:26;;;;;;;4.27;2.70;;;;;;;14.34;72.39;94569.97;5004934;28;20270;-65
2022/08/09 01:53:10;;;;;;;5.20;2.93;;;;;;;14.24;73.12;94572.13;4995314;28;20208;-65
2022/08/09 01:55:57;;;;;;;4.87;3.07;;;;;;;14.20;73.12;94572.56;5005725;28;20235;-65
2022/08/09 01:58:43;;;;;;;3.30;2.90;;;;;;;14.23;72.83;94571.38;5005550;28;20796;-65
2022/08/09 02:01:32;;;;;;;4.50;3.33;;;;;;;14.19;72.62;94576.75;5002875;28;20208;-65
2022/08/09 02:04:18;;;;;;;6.83;2.97;;;;;;;14.05;73.02;94584.97;4996474;28;20207;-65
2022/08/09 02:07:11;;;;;;;2.80;2.60;;;;;;;14.02;73.46;94586.16;5001684;28;20318;-65
2022/08/09 02:10:00;;;;;;;2.90;2.57;;;;;;;14.00;73.33;94583.22;5004558;28;20284;-65
2022/08/09 02:12:45;;;;;;;3.33;3.00;;;;;;;13.93;73.53;94578.50;5010879;28;20220;-64
2022/08/09 02:15:34;;;;;;;4.57;2.70;;;;;;;14.21;72.77;94576.13;4998803;28;20204;-64
2022/08/09 02:18:24;;;;;;;5.23;3.20;;;;;;;14.24;72.24;94583.38;5005112;28;20200;-65
2022/08/09 02:21:12;;;;;;;3.67;3.07;;;;;;;14.23;72.62;94587.56;5008653;28;20203;-65
2022/08/09 02:23:58;;;;;;;4.37;3.00;;;;;;;14.23;72.43;94576.28;5007986;28;20203;-65
2022/08/09 02:26:44;;;;;;;3.67;3.00;;;;;;;14.20;72.51;94583.84;4993204;28;20619;-65
2022/08/09 02:29:36;;;;;;;4.77;3.00;;;;;;;14.17;72.57;94580.16;5005113;28;20222;-65
2022/08/09 02:32:23;;;;;;;6.33;3.40;;;;;;;14.00;72.49;94588.84;4996654;28;20283;-65
2022/08/09 02:35:15;;;;;;;3.20;3.00;;;;;;;13.79;74.41;94583.13;4999120;28;20710;-65
2022/08/09 02:38:01;;;;;;;5.87;2.87;;;;;;;13.66;74.99;94583.59;5003531;28;20204;-65
2022/08/09 02:40:47;;;;;;;3.53;3.23;;;;;;;13.59;75.17;94592.97;5004102;28;20223;-65
2022/08/09 02:43:33;;;;;;;3.57;3.27;;;;;;;13.56;75.52;94586.47;5000750;28;20196;-65
2022/08/09 02:46:17;;;;;;;3.40;3.10;;;;;;;13.56;74.87;94585.72;5007060;28;20283;-65
2022/08/09 02:49:06;;;;;;;6.37;3.07;;;;;;;13.58;74.61;94583.03;5001654;28;20283;-65
2022/08/09 02:51:56;;;;;;;3.03;2.83;;;;;;;13.57;74.51;94581.56;5005038;28;20231;-65
2022/08/09 02:54:41;;;;;;;3.57;3.00;;;;;;;13.52;74.74;94585.41;4994631;28;20280;-65
2022/08/09 02:57:27;;;;;;;3.70;3.40;;;;;;;13.53;75.39;94581.28;4999328;28;20200;-65
2022/08/09 03:00:13;;;;;;;3.57;3.27;;;;;;;13.50;75.47;94583.22;4999643;28;20203;-65
2022/08/09 03:02:59;;;;;;;6.57;3.80;;;;;;;13.49;75.17;94575.38;4997770;28;20258;-65
2022/08/09 03:05:44;;;;;;;3.50;3.13;;;;;;;13.49;75.02;94583.81;4999308;28;20251;-65
2022/08/09 03:08:30;;;;;;;4.07;3.47;;;;;;;13.51;74.26;94575.50;4999859;28;20688;-65
2022/08/09 03:11:17;;;;;;;3.47;3.17;;;;;;;13.53;74.02;94584.81;5000900;28;20656;-65
2022/08/09 03:14:03;;;;;;;4.37;3.57;;;;;;;13.50;74.49;94576.84;5009421;28;20204;-65
2022/08/09 03:16:47;;;;;;;6.00;3.40;;;;;;;13.32;75.10;94585.47;4998050;28;20199;-65
2022/08/09 03:19:33;;;;;;;4.37;3.37;;;;;;;13.33;75.00;94581.31;4991231;28;20201;-65
2022/08/09 03:22:18;;;;;;;4.00;3.03;;;;;;;13.36;74.11;94582.19;5007197;28;20204;-65
2022/08/09 03:25:03;;;;;;;5.27;3.50;;;;;;;13.33;74.49;94581.31;5000418;28;20200;-65
2022/08/09 03:27:50;;;;;;;3.07;2.77;;;;;;;13.32;74.84;94579.84;4997263;28;20302;-66
2022/08/09 03:30:35;;;;;;;3.40;3.10;;;;;;;13.36;74.62;94585.00;4997445;28;20235;-65
2022/08/09 03:33:20;;;;;;;5.90;3.70;;;;;;;13.22;75.03;94587.56;4998278;28;20197;-65
2022/08/09 03:36:09;;;;;;;4.23;3.43;;;;;;;13.22;75.14;94593.19;4992603;28;20348;-65
2022/08/09 03:38:53;;;;;;;3.60;3.30;;;;;;;13.14;75.11;94595.44;4999421;28;20202;-65
2022/08/09 03:41:37;;;;;;;3.50;3.20;;;;;;;13.01;75.69;94595.84;5002050;28;20207;-65
2022/08/09 03:44:24;;;;;;;3.77;3.47;;;;;;;12.93;76.73;94598.78;5000047;28;20721;-65
2022/08/09 03:47:09;;;;;;;4.57;3.47;;;;;;;12.89;76.50;94594.97;5000830;28;20231;-65
2022/08/09 03:49:54;;;;;;;7.60;3.47;;;;;;;12.87;77.27;94594.78;4998994;28;20209;-65
2022/08/09 03:52:41;;;;;;;4.13;3.63;;;;;;;12.82;78.11;94605.03;5009319;28;20239;-65
2022/08/09 03:55:25;;;;;;;4.23;3.87;;;;;;;12.93;77.55;94606.50;5004173;28;20223;-65
2022/08/09 03:58:10;;;;;;;4.97;3.80;;;;;;;12.99;76.99;94604.13;5012490;28;20203;-65
2022/08/09 04:00:55;;;;;;;4.77;3.87;;;;;;;13.05;76.60;94607.38;5002263;28;20208;-65
2022/08/09 04:03:39;;;;;;;9.13;4.40;;;;;;;13.11;76.45;94607.81;5000731;28;20200;-65
2022/08/09 04:06:24;;;;;;;7.23;4.10;;;;;;;13.18;75.94;94604.16;5004440;28;20216;-65
2022/08/09 04:09:08;;;;;;;4.37;3.83;;;;;;;13.17;75.61;94613.91;5004821;28;20204;-65
2022/08/09 04:12:04;;;;;;;4.17;3.80;;;;;;;13.17;76.01;94613.91;5009071;28;20231;-65
2022/08/09 04:14:48;;;;;;;12.47;4.10;;;;;;;13.15;76.47;94610.94;4999825;28;20208;-66
2022/08/09 04:17:32;;;;;;;5.23;4.73;;;;;;;13.23;76.33;94608.00;5000076;28;20227;-65
2022/08/09 04:20:17;;;;;;;4.40;3.93;;;;;;;13.25;76.53;94606.06;5004541;28;20253;-65
2022/08/09 04:23:01;;;;;;;7.10;3.53;;;;;;;13.32;76.10;94601.63;5006219;28;20200;-65
2022/08/09 04:25:45;;;;;;;6.37;4.20;;;;;;;13.41;76.11;94597.31;4994613;28;20232;-65
2022/08/09 04:28:30;;;;;;;6.17;3.83;;;;;;;13.65;75.61;94601.84;5001641;28;20200;-65
2022/08/09 04:31:14;;;;;;;6.03;4.20;;;;;;;13.82;75.30;94606.56;5005067;28;20223;-65
2022/08/09 04:33:58;;;;;;;5.30;4.80;;;;;;;14.20;74.14;94600.75;5000940;28;20203;-65
2022/08/09 04:36:42;;;;;;;6.03;4.37;;;;;;;14.32;73.40;94595.22;5010141;28;20572;-66
2022/08/09 04:39:27;;;;;;;5.53;4.23;;;;;;;14.43;73.59;94594.59;4994920;28;20203;-66
2022/08/09 04:42:11;;;;;;;8.70;4.03;;;;;;;14.75;72.60;94602.41;5001586;28;20223;-65
2022/08/09 04:44:58;;;;;;;7.37;3.77;;;;;;;14.89;72.31;94600.53;5007955;28;20218;-65
2022/08/09 04:47:42;;;;;;;3.93;3.63;;;;;;;15.17;71.29;94609.38;5013002;28;20251;-65
2022/08/09 04:50:27;;;;;;;5.90;3.80;;;;;;;15.49;70.17;94608.63;5002640;28;20279;-65
2022/08/09 04:53:11;;;;;;;4.13;3.40;;;;;;;15.74;68.87;94606.03;5006079;28;20207;-65
2022/08/09 04:55:55;;;;;;;4.13;3.73;;;;;;;16.01;67.65;94610.50;5011648;28;20212;-66
2022/08/09 04:58:39;;;;;;;4.30;3.63;;;;;;;16.26;67.04;94621.97;5004784;28;20196;-65
2022/08/09 05:01:24;;;;;;;3.87;3.57;;;;;;;16.48;66.20;94617.66;4998290;28;20205;-65
2022/08/09 05:04:07;;;;;;;4.70;3.30;;;;;;;16.67;66.15;94621.59;4994839;28;20196;-65
2022/08/09 05:06:52;;;;;;;3.60;3.30;;;;;;;16.97;65.56;94621.31;5007666;28;20220;-65
2022/08/09 05:09:36;;;;;;;4.17;3.10;;;;;;;17.12;65.08;94631.38;5011922;28;20195;-65
2022/08/09 05:12:20;;;;;;;5.53;3.40;;;;;;;17.12;65.84;94628.56;5007990;28;20232;-65
2022/08/09 05:15:05;;;;;;;3.97;3.00;;;;;;;17.08;65.91;94630.41;5005572;28;20200;-65
2022/08/09 05:17:49;;;;;;;3.63;3.00;;;;;;;17.40;65.62;94635.84;5000736;28;20192;-65
2022/08/09 05:20:34;;;;;;;5.87;2.97;;;;;;;17.94;63.13;94636.75;5001640;28;20203;-65
2022/08/09 05:23:18;;;;;;;3.73;2.67;;;;;;;17.87;63.54;94644.19;4997849;28;20200;-65
2022/08/09 05:26:02;;;;;;;4.37;2.50;;;;;;;18.24;62.47;94643.34;5009065;28;20250;-65
2022/08/09 05:28:46;;;;;;;5.57;2.60;;;;;;;18.44;61.73;94641.59;5003507;28;20290;-65
2022/08/09 05:31:31;;;;;;;3.40;2.83;;;;;;;18.18;62.44;94650.16;5010010;28;20200;-65
2022/08/09 05:34:15;;;;;;;2.77;2.57;;;;;;;18.40;61.90;94644.22;5007080;28;20204;-65
2022/08/09 05:37:02;;;;;;;2.87;2.50;;;;;;;18.44;62.38;94650.13;5007773;28;20235;-65
2022/08/09 05:39:46;;;;;;;9.40;2.63;;;;;;;18.75;61.98;94653.22;4998927;28;20210;-65
2022/08/09 05:42:30;;;;;;;5.30;2.30;;;;;;;18.89;61.03;94656.78;4999132;28;20259;-67
2022/08/09 05:45:14;;;;;;;2.87;2.47;;;;;;;18.36;61.56;94649.66;4999905;28;20210;-65
2022/08/09 05:47:58;;;;;;;3.83;2.33;;;;;;;18.84;60.76;94655.13;5010847;28;20711;-64
2022/08/09 05:50:43;;;;;;;3.23;2.57;;;;;;;18.85;61.02;94656.59;5007175;28;20207;-64
2022/08/09 05:53:27;;;;;;;2.90;2.30;;;;;;;18.89;60.32;94653.94;4999545;28;20203;-65
2022/08/09 05:56:11;;;;;;;3.30;2.10;;;;;;;18.73;60.73;94655.94;5011023;28;20221;-64
2022/08/09 05:58:58;;;;;;;2.67;2.30;;;;;;;18.95;60.34;94662.78;5004257;28;20227;-65
2022/08/09 06:01:44;;;;;;;3.90;2.47;;;;;;;19.10;60.52;94647.22;5002421;28;20195;-65
2022/08/09 06:04:28;;;;;;;6.07;2.57;;;;;;;19.32;59.87;94653.28;5008672;28;20728;-65
2022/08/09 06:07:12;;;;;;;3.17;2.30;;;;;;;19.41;58.38;94652.34;5003529;28;20236;-67
2022/08/09 06:09:56;;;;;;;2.50;2.30;;;;;;;19.30;58.55;94659.63;5006884;28;20546;-67
2022/08/09 06:12:41;;;;;;;5.20;2.40;;;;;;;19.61;57.15;94647.69;4997872;28;20231;-64
2022/08/09 06:15:25;;;;;;;5.50;2.20;;;;;;;19.41;57.75;94658.03;5005723;28;20235;-66
2022/08/09 06:18:10;;;;;;;4.20;2.53;;;;;;;19.46;58.50;94650.44;5001650;28;20208;-64
2022/08/09 06:20:55;;;;;;;4.07;2.17;;;;;;;19.62;57.79;94666.22;5006441;28;20200;-67
2022/08/09 06:23:40;;;;;;;2.10;2.00;;;;;;;19.83;57.21;94652.97;4996003;28;20200;-66
2022/08/09 06:26:24;;;;;;;4.68;2.65;;;;;;;19.79;57.78;94659.94;5002610;28;20212;-65
2022/08/09 06:29:09;;;;;;;4.50;2.47;;;;;;;20.07;56.00;94652.03;4995872;28;20204;-64
2022/08/09 06:31:53;;;;;;;3.90;1.98;;;;;;;19.71;57.32;94659.53;5000178;28;20242;-65
2022/08/09 06:34:38;;;;;;;4.75;2.10;;;;;;;19.76;56.91;94664.06;5000132;28;20203;-66
2022/08/09 06:37:22;;;;;;;3.20;2.33;;;;;;;20.04;57.09;94663.97;4995404;28;20570;-66
2022/08/09 06:40:07;;;;;;;3.83;1.90;;;;;;;20.26;56.42;94655.72;5003747;28;20192;-66
2022/08/09 06:42:51;;;;;;;19.73;3.15;;;;;;;20.09;56.92;94654.25;5010293;28;20208;-67
2022/08/09 06:45:35;;;;;;;2.38;2.03;;;;;;;20.07;56.59;94662.66;4991989;28;20227;-67
2022/08/09 06:48:19;;;;;;;2.95;2.38;;;;;;;20.65;56.29;94672.53;5008397;28;20200;-65
2022/08/09 06:51:04;;;;;;;2.55;2.10;;;;;;;20.41;55.44;94672.88;5000701;28;20204;-68
2022/08/09 06:53:48;;;;;;;2.80;1.73;;;;;;;19.96;56.01;94669.25;5005960;28;20278;-66
2022/08/09 06:56:32;;;;;;;3.65;2.10;;;;;;;20.57;55.62;94673.63;5007926;28;20608;-65
2022/08/09 06:59:16;;;;;;;2.85;1.88;;;;;;;21.04;55.63;94681.44;4998840;28;20195;-66
2022/08/09 07:02:01;;;;;;;1.83;1.73;;;;;;;20.64;54.67;94676.75;4992358;28;20203;-65
2022/08/09 07:04:45;;;;;;;3.05;1.77;;;;;;;20.80;54.70;94671.78;5004773;28;20258;-64
2022/08/09 07:07:29;;;;;;;5.05;2.00;;;;;;;21.26;53.15;94682.41;5000113;28;20219;-64
2022/08/09 07:10:14;;;;;;;2.97;1.90;;;;;;;20.88;53.66;94677.84;5011280;28;20211;-65
2022/08/09 07:12:58;;;;;;;3.63;1.80;;;;;;;21.22;52.87;94682.25;4997839;28;20319;-64
2022/08/09 07:15:43;;;;;;;2.63;1.95;;;;;;;21.63;52.46;94679.00;5006295;28;20203;-66
2022/08/09 07:18:27;;;;;;;4.43;1.80;;;;;;;21.38;51.85;94682.94;4998673;28;20204;-66
2022/08/09 07:21:11;;;;;;;4.20;1.70;;;;;;;21.54;52.13;94687.88;5009787;28;20211;-67
2022/08/09 07:23:55;;;;;;;5.03;2.05;;;;;;;21.75;50.17;94687.34;5010119;28;20234;-66
2022/08/09 07:26:39;;;;;;;4.75;1.70;;;;;;;21.93;52.51;94687.34;5007177;28;20310;-65
2022/08/09 07:29:25;;;;;;;8.85;1.90;;;;;;;21.92;51.97;94689.47;5013383;28;20204;-64
2022/08/09 07:32:09;;;;;;;2.65;1.80;;;;;;;21.86;52.42;94689.22;5013150;28;20258;-66
2022/08/09 07:34:53;;;;;;;3.80;1.70;;;;;;;21.70;52.10;94694.25;5000943;28;20208;-66
2022/08/09 07:37:42;;;;;;;3.15;1.75;;;;;;;22.55;51.12;94692.75;5012868;28;20775;-65
2022/08/09 07:40:27;;;;;;;2.00;1.42;;;;;;;22.08;52.03;94703.72;5003946;28;20197;-65
2022/08/09 07:43:10;;;;;;;4.68;1.67;;;;;;;22.57;51.61;94698.53;4999077;28;20211;-65
2022/08/09 07:45:54;;;;;;;2.83;1.92;;;;;;;22.66;51.53;94701.69;5003125;28;20192;-65
2022/08/09 07:48:38;;;;;;;7.53;2.40;;;;;;;23.26;48.44;94703.28;5008649;28;20283;-65
2022/08/09 07:51:23;;;;;;;7.80;2.00;;;;;;;22.57;49.39;94712.09;4998399;28;20672;-67
2022/08/09 07:54:07;;;;;;;1.85;1.60;;;;;;;22.44;48.68;94716.59;5001064;28;20200;-65
2022/08/09 07:56:51;;;;;;;3.63;1.33;;;;;;;21.90;48.80;94712.22;4995198;28;20332;-65
2022/08/09 07:59:36;;;;;;;5.93;1.50;;;;;;;22.29;48.34;94710.97;5009487;28;20200;-67
2022/08/09 08:02:23;;;;;;;2.72;1.58;;;;;;;22.00;48.42;94709.09;4999332;28;20199;-65
2022/08/09 08:05:07;;;;;;;3.17;1.60;;;;;;;22.01;49.53;94717.00;5005953;28;20216;-67
2022/08/09 08:07:53;;;;;;;3.40;1.80;;;;;;;22.89;48.63;94719.09;5002743;28;20242;-65
2022/08/09 08:10:37;;;;;;;6.82;1.80;;;;;;;22.72;47.38;94716.97;5001347;28;20200;-66
2022/08/09 08:13:21;;;;;;;2.47;1.23;;;;;;;22.71;46.95;94709.78;5001282;28;20235;-67
2022/08/09 08:16:06;;;;;;;1.95;1.50;;;;;;;22.88;47.52;94711.91;4997588;28;20200;-66
2022/08/09 08:18:50;;;;;;;1.60;1.48;;;;;;;23.79;45.59;94706.63;5004975;28;20277;-65
2022/08/09 08:21:34;;;;;;;2.05;1.42;;;;;;;22.48;46.52;94708.19;5013613;28;20207;-68
2022/08/09 08:24:18;;;;;;;4.15;1.60;;;;;;;23.40;44.85;94713.09;4998478;28;20204;-66
2022/08/09 08:27:02;;;;;;;2.38;1.45;;;;;;;23.13;44.68;94707.81;5011308;28;20224;-65
2022/08/09 08:29:46;;;;;;;4.60;1.45;;;;;;;23.99;43.14;94717.28;5009644;28;20282;-66
2022/08/09 08:32:31;;;;;;;2.75;1.55;;;;;;;23.55;44.29;94711.50;4997490;28;20200;-66
2022/08/09 08:35:15;;;;;;;1.48;1.38;;;;;;;23.17;43.41;94713.69;5009093;28;20884;-67
2022/08/09 08:37:59;;;;;;;3.25;1.45;;;;;;;23.10;44.15;94714.84;4998996;28;20255;-67
2022/08/09 08:40:43;;;;;;;3.30;1.10;;;;;;;22.71;44.10;94715.50;5011392;28;20191;-67
2022/08/09 08:43:28;;;;;;;3.40;1.42;;;;;;;23.27;44.53;94710.44;5005380;28;20207;-66
2022/08/09 08:46:15;;;;;;;3.05;1.42;;;;;;;23.07;43.68;94724.00;5009882;28;20223;-66
2022/08/09 08:48:59;;;;;;;2.80;1.50;;;;;;;22.67;43.83;94720.31;5013419;28;20304;-64
2022/08/09 08:51:44;;;;;;;3.90;1.40;;;;;;;22.73;43.35;94724.16;5012922;28;20210;-64
2022/08/09 08:54:28;;;;;;;4.43;1.90;;;;;;;23.25;43.44;94724.69;5004853;28;20208;-66
2022/08/09 08:57:12;;;;;;;14.00;1.65;;;;;;;23.57;42.45;94711.56;5006093;28;20620;-64
2022/08/09 08:59:57;;;;;;;1.80;1.23;;;;;;;22.91;41.86;94722.00;4996373;28;20285;-68
2022/08/09 09:02:43;;;;;;;2.55;1.38;;;;;;;23.03;43.02;94726.72;4999819;28;20200;-68
2022/08/09 09:05:27;;;;;;;1.90;1.38;;;;;;;22.93;42.41;94713.50;5004151;28;20223;-67
2022/08/09 09:08:13;;;;;;;2.80;1.42;;;;;;;23.63;42.22;94708.94;5013390;28;20238;-65
2022/08/09 09:11:03;;;;;;;3.30;1.45;;;;;;;24.07;43.36;94714.72;5007827;28;20275;-64
2022/08/09 09:13:51;;;;;;;3.10;1.40;;;;;;;23.94;40.64;94722.16;5008088;28;20246;-66
2022/08/09 09:16:35;;;;;;;1.67;1.17;;;;;;;23.57;41.39;94730.88;5001146;28;20222;-67
2022/08/09 09:19:19;;;;;;;2.38;1.27;;;;;;;23.10;40.86;94714.84;5006419;28;20614;-68
2022/08/09 09:22:14;;;;;;;2.22;1.52;;;;;;;23.65;40.88;94711.84;4997732;28;20218;-66
2022/08/09 09:24:59;;;;;;;3.55;1.92;;;;;;;23.61;41.17;94720.28;5007626;28;20203;-67
2022/08/09 09:27:43;;;;;;;6.22;1.40;;;;;;;24.32;41.09;94719.84;5012861;28;20571;-65
2022/08/09 09:30:27;;;;;;;1.73;1.30;;;;;;;24.31;40.63;94718.41;5005719;28;20287;-68
2022/08/09 09:33:12;;;;;;;1.52;1.02;;;;;;;24.31;38.35;94718.41;5009060;28;20316;-67
2022/08/09 09:36:05;;;;;;;1.33;1.13;;;;;;;23.55;39.49;94717.22;5004137;28;20228;-67
2022/08/09 09:38:56;;;;;;;2.97;1.73;;;;;;;23.66;40.01;94701.88;5010621;28;20213;-67
2022/08/09 09:41:41;;;;;;;2.00;1.38;;;;;;;24.47;40.19;94712.44;5005760;28;20290;-64
2022/08/09 09:44:31;;;;;;;3.67;1.17;;;;;;;23.87;40.00;94709.03;5003331;28;20203;-64
2022/08/09 09:47:15;;;;;;;2.88;1.40;;;;;;;24.00;40.28;94710.91;5012355;28;20228;-67
2022/08/09 09:50:00;;;;;;;5.57;1.50;;;;;;;24.04;39.02;94730.34;4998967;28;20206;-66
2022/08/09 09:52:52;;;;;;;6.32;1.38;;;;;;;23.67;39.42;94714.78;5005284;28;20208;-65
2022/08/09 09:55:56;;;;;;;3.58;1.27;;;;;;;23.54;39.44;94712.88;5011608;28;20203;-67
2022/08/09 09:58:46;;;;;;;2.33;1.40;;;;;;;23.99;37.17;94717.28;5006031;28;20203;-69
2022/08/09 10:01:30;;;;;;;2.65;1.30;;;;;;;23.93;38.22;94709.25;5002557;28;20196;-65
2022/08/09 10:04:17;;;;;;;2.05;1.52;;;;;;;23.94;39.01;94716.44;5007499;28;20203;-67
2022/08/09 10:07:01;;;;;;;2.60;1.67;;;;;;;23.32;38.71;94712.06;5012253;28;20216;-67
2022/08/09 10:09:47;;;;;;;2.95;1.50;;;;;;;23.50;39.68;94714.88;5001078;28;20665;-66
2022/08/09 10:12:37;;;;;;;3.75;1.60;;;;;;;24.79;40.01;94707.00;5011179;28;20211;-66
2022/08/09 10:15:21;;;;;;;6.78;1.50;;;;;;;24.30;39.02;94708.34;5002965;28;20672;-67
2022/08/09 10:18:11;;;;;;;2.97;1.60;;;;;;;24.02;39.09;94708.09;5002541;28;20203;-67
2022/08/09 10:21:10;;;;;;;2.55;1.38;;;;;;;23.70;38.39;94704.88;4999009;28;20199;-68
2022/08/09 10:23:55;;;;;;;3.45;1.42;;;;;;;23.60;37.13;94706.66;5010124;28;20192;-69
2022/08/09 10:26:40;;;;;;;1.65;1.30;;;;;;;23.51;38.84;94716.34;5009791;28;20231;-69
2022/08/09 10:29:25;;;;;;;1.70;1.35;;;;;;;24.48;39.11;94708.91;5007567;28;20684;-65
2022/08/09 10:32:09;;;;;;;3.22;1.20;;;;;;;24.17;36.35;94706.44;5007484;28;20534;-65
2022/08/09 10:34:55;;;;;;;5.43;1.45;;;;;;;24.51;37.48;94698.97;5007109;28;20203;-65
2022/08/09 10:37:39;;;;;;;5.30;1.30;;;;;;;23.99;38.15;94711.56;5003229;28;20668;-66
2022/08/09 10:40:24;;;;;;;5.10;1.20;;;;;;;24.36;35.89;94702.81;4999939;28;20231;-68
2022/08/09 10:43:07;;;;;;;1.50;1.20;;;;;;;24.61;37.33;94706.44;4998386;28;20215;-68
2022/08/09 10:45:52;;;;;;;1.95;1.00;;;;;;;24.24;36.08;94705.28;4995053;28;20385;-67
2022/08/09 10:48:48;;;;;;;2.97;1.48;;;;;;;24.70;36.85;94706.00;5001598;28;20254;-63
2022/08/09 10:51:48;;;;;;;3.38;1.60;;;;;;;24.78;37.89;94699.78;5001623;28;20211;-68
2022/08/09 10:54:32;;;;;;;3.13;1.15;;;;;;;24.17;37.00;94709.31;5003496;28;20274;-63
2022/08/09 10:57:16;;;;;;;4.53;1.30;;;;;;;23.99;36.14;94700.13;5001025;28;20200;-69
2022/08/09 11:00:29;;;;;;;1.30;1.20;;;;;;;24.42;36.25;94699.41;5005095;28;20192;-68
2022/08/09 11:03:22;;;;;;;1.80;1.15;;;;;;;25.09;35.00;94698.59;5002030;28;20255;-67
2022/08/09 11:06:19;;;;;;;3.00;1.17;;;;;;;24.68;33.52;94697.34;4994727;28;20219;-65
2022/08/09 11:09:04;;;;;;;2.65;1.13;;;;;;;24.85;33.65;94698.56;5008588;28;20621;-68
2022/08/09 11:11:58;;;;;;;2.38;1.15;;;;;;;25.07;34.96;94696.38;5008506;28;20202;-65
2022/08/09 11:14:53;;;;;;;2.22;1.00;;;;;;;24.84;35.04;94697.09;4999555;28;20669;-65
2022/08/09 11:17:42;;;;;;;2.03;1.27;;;;;;;25.07;33.81;94701.38;5002600;28;20199;-68
2022/08/09 11:20:46;;;;;;;2.08;1.00;;;;;;;24.66;34.47;94690.81;5005232;28;20212;-65
2022/08/09 11:23:59;;;;;;;3.05;0.98;;;;;;;24.66;34.93;94693.69;4999861;28;20466;-66
2022/08/09 11:26:47;;;;;;;1.40;1.00;;;;;;;24.67;34.81;94686.56;4999498;28;20327;-68
2022/08/09 11:29:54;;;;;;;4.30;1.17;;;;;;;24.82;34.03;94688.44;5003895;28;20204;-68
2022/08/09 11:32:51;;;;;;;2.70;1.40;;;;;;;24.95;34.95;94685.28;5002423;28;20199;-65
2022/08/09 11:35:41;;;;;;;2.40;1.00;;;;;;;25.05;35.02;94692.75;4991867;28;20283;-65
2022/08/09 11:38:26;;;;;;;2.75;0.90;;;;;;;24.91;32.73;94690.91;5007523;28;20208;-62
2022/08/09 11:41:11;;;;;;;3.63;1.20;;;;;;;25.14;32.66;94683.69;5010162;28;20282;-66
2022/08/09 11:43:56;;;;;;;1.98;1.10;;;;;;;24.61;32.53;94692.09;5002817;28;20250;-65
2022/08/09 11:46:51;;;;;;;1.15;0.93;;;;;;;24.65;31.83;94695.09;4999089;28;20227;-64
2022/08/09 11:49:58;;;;;;;2.33;0.90;;;;;;;25.64;33.28;94698.00;5004945;28;20199;-67
2022/08/09 11:53:16;;;;;;;3.15;1.08;;;;;;;25.72;32.58;94695.34;4999998;28;20200;-65
2022/08/09 11:56:27;;;;;;;3.78;0.98;;;;;;;25.37;31.83;94694.38;5005563;28;20283;-65
2022/08/09 11:59:24;;;;;;;1.42;0.85;;;;;;;25.21;31.21;94676.72;5005892;28;20625;-66
2022/08/09 12:02:12;;;;;;;1.27;0.77;;;;;;;25.07;33.46;94684.91;4995641;28;20205;-66
2022/08/09 12:04:56;;;;;;;2.40;1.00;;;;;;;25.35;32.85;94690.72;4998297;28;20216;-66
2022/08/09 12:07:42;;;;;;;0.93;0.80;;;;;;;25.50;32.20;94678.22;5006163;28;20467;-65
2022/08/09 12:10:26;;;;;;;1.75;1.00;;;;;;;25.38;32.47;94672.16;4998312;28;20232;-66
2022/08/09 12:13:10;;;;;;;1.48;1.10;;;;;;;25.63;33.82;94673.56;5011904;28;20219;-67
2022/08/09 12:16:03;;;;;;;2.25;0.90;;;;;;;25.38;31.04;94686.50;5005111;28;20195;-64
2022/08/09 12:18:51;;;;;;;1.80;0.95;;;;;;;26.00;30.84;94675.97;5008874;28;20278;-67
2022/08/09 12:21:37;;;;;;;2.47;1.00;;;;;;;25.81;30.79;94682.66;5008051;28;20665;-65
2022/08/09 12:24:23;;;;;;;2.00;1.17;;;;;;;25.67;30.81;94682.31;4998911;28;20204;-69
2022/08/09 12:27:18;;;;;;;4.30;1.27;;;;;;;26.35;29.77;94676.88;5004951;28;20361;-67
2022/08/09 12:30:02;;;;;;;2.97;1.10;;;;;;;26.05;31.79;94671.78;5011059;28;20461;-65
2022/08/09 12:32:47;;;;;;;2.58;1.08;;;;;;;26.42;33.97;94666.97;5004535;28;20200;-65
2022/08/09 12:35:31;;;;;;;2.35;1.27;;;;;;;25.89;32.49;94665.66;4998416;28;20669;-67
2022/08/09 12:38:19;;;;;;;4.72;1.10;;;;;;;25.28;33.36;94663.28;5008095;28;20204;-68
2022/08/09 12:41:03;;;;;;;4.95;1.08;;;;;;;26.57;31.83;94654.38;5013059;28;20293;-65
2022/08/09 12:43:49;;;;;;;2.40;1.30;;;;;;;26.81;34.51;94659.94;5006093;28;20204;-64
2022/08/09 12:46:34;;;;;;;2.47;1.13;;;;;;;26.78;32.17;94670.69;5000870;28;20638;-65
2022/08/09 12:49:20;;;;;;;4.65;1.20;;;;;;;27.22;30.71;94662.28;4994858;28;20200;-66
2022/08/09 12:52:05;;;;;;;1.42;1.10;;;;;;;27.40;31.48;94676.34;5001684;28;20598;-68
2022/08/09 12:54:56;;;;;;;2.65;1.30;;;;;;;26.49;34.19;94660.69;5008166;28;20334;-66
2022/08/09 12:57:43;;;;;;;1.67;1.25;;;;;;;26.26;33.55;94660.84;4994895;28;20197;-66
2022/08/09 13:00:33;;;;;;;3.58;1.33;;;;;;;26.13;33.57;94660.50;5012545;28;20200;-65
2022/08/09 13:03:26;;;;;;;3.30;1.50;;;;;;;25.71;34.68;94656.56;5008816;28;20208;-65
2022/08/09 13:06:23;;;;;;;2.75;1.55;;;;;;;25.78;35.27;94643.84;5003776;28;20231;-68